sensor_id;sensor_type;location;lat;lon;timestamp;temperature;humidity
40756;DHT22;26461;45.630;9.418;2023-11-19T00:02:28;11.70;49.70
40756;DHT22;26461;45.630;9.418;2023-11-19T00:05:39;11.70;49.90
40756;DHT22;26461;45.630;9.418;2023-11-19T00:08:44;11.70;50.30
40756;DHT22;26461;45.630;9.418;2023-11-19T00:11:49;11.60;50.20
40756;DHT22;26461;45.630;9.418;2023-11-19T00:14:54;11.60;50.40
40756;DHT22;26461;45.630;9.418;2023-11-19T00:17:59;11.60;50.30
40756;DHT22;26461;45.630;9.418;2023-11-19T00:21:07;11.70;50.30
40756;DHT22;26461;45.630;9.418;2023-11-19T00:24:20;11.50;50.20
40756;DHT22;26461;45.630;9.418;2023-11-19T00:27:25;11.60;50.90
40756;DHT22;26461;45.630;9.418;2023-11-19T00:30:35;11.60;51.10
40756;DHT22;26461;45.630;9.418;2023-11-19T00:33:40;11.50;50.60
40756;DHT22;26461;45.630;9.418;2023-11-19T00:36:45;11.50;50.30
40756;DHT22;26461;45.630;9.418;2023-11-19T00:39:55;11.50;50.20
40756;DHT22;26461;45.630;9.418;2023-11-19T00:43:04;11.50;50.10
40756;DHT22;26461;45.630;9.418;2023-11-19T00:46:13;11.50;50.10
40756;DHT22;26461;45.630;9.418;2023-11-19T00:49:24;11.50;50.10
40756;DHT22;26461;45.630;9.418;2023-11-19T00:52:29;11.50;50.20
40756;DHT22;26461;45.630;9.418;2023-11-19T00:55:40;11.40;50.10
40756;DHT22;26461;45.630;9.418;2023-11-19T00:58:46;11.40;50.20
40756;DHT22;26461;45.630;9.418;2023-11-19T01:01:51;11.40;50.20
40756;DHT22;26461;45.630;9.418;2023-11-19T01:04:56;11.40;50.20
40756;DHT22;26461;45.630;9.418;2023-11-19T01:08:01;11.40;50.30
40756;DHT22;26461;45.630;9.418;2023-11-19T01:11:19;11.40;50.30
40756;DHT22;26461;45.630;9.418;2023-11-19T01:14:26;11.40;50.40
40756;DHT22;26461;45.630;9.418;2023-11-19T01:17:31;11.40;50.50
40756;DHT22;26461;45.630;9.418;2023-11-19T01:20:39;11.40;50.50
40756;DHT22;26461;45.630;9.418;2023-11-19T01:23:44;11.40;50.50
40756;DHT22;26461;45.630;9.418;2023-11-19T01:26:55;11.30;50.40
40756;DHT22;26461;45.630;9.418;2023-11-19T01:30:09;11.30;50.40
40756;DHT22;26461;45.630;9.418;2023-11-19T01:33:18;11.30;50.30
40756;DHT22;26461;45.630;9.418;2023-11-19T01:36:23;11.30;50.40
40756;DHT22;26461;45.630;9.418;2023-11-19T01:39:34;11.30;50.50
40756;DHT22;26461;45.630;9.418;2023-11-19T01:42:39;11.30;50.70
40756;DHT22;26461;45.630;9.418;2023-11-19T01:45:50;11.20;50.80
40756;DHT22;26461;45.630;9.418;2023-11-19T01:49:00;11.20;50.90
40756;DHT22;26461;45.630;9.418;2023-11-19T01:52:08;11.20;51.10
40756;DHT22;26461;45.630;9.418;2023-11-19T01:55:13;11.20;51.20
40756;DHT22;26461;45.630;9.418;2023-11-19T01:58:18;11.10;51.20
40756;DHT22;26461;45.630;9.418;2023-11-19T02:01:24;11.10;51.40
40756;DHT22;26461;45.630;9.418;2023-11-19T02:04:34;11.10;51.40
40756;DHT22;26461;45.630;9.418;2023-11-19T02:07:40;11.10;51.60
40756;DHT22;26461;45.630;9.418;2023-11-19T02:10:45;11.10;51.70
40756;DHT22;26461;45.630;9.418;2023-11-19T02:13:50;11.00;51.70
40756;DHT22;26461;45.630;9.418;2023-11-19T02:16:56;11.00;51.80
40756;DHT22;26461;45.630;9.418;2023-11-19T02:20:06;11.00;52.00
40756;DHT22;26461;45.630;9.418;2023-11-19T02:23:18;10.90;52.40
40756;DHT22;26461;45.630;9.418;2023-11-19T02:29:52;10.90;52.20
40756;DHT22;26461;45.630;9.418;2023-11-19T02:32:59;10.80;52.30
40756;DHT22;26461;45.630;9.418;2023-11-19T02:36:09;10.80;52.30
40756;DHT22;26461;45.630;9.418;2023-11-19T02:39:14;10.80;52.20
40756;DHT22;26461;45.630;9.418;2023-11-19T02:42:25;10.80;52.20
40756;DHT22;26461;45.630;9.418;2023-11-19T02:45:36;10.80;52.70
40756;DHT22;26461;45.630;9.418;2023-11-19T02:48:41;10.80;52.20
40756;DHT22;26461;45.630;9.418;2023-11-19T02:51:47;10.80;52.10
40756;DHT22;26461;45.630;9.418;2023-11-19T02:54:59;10.80;52.20
40756;DHT22;26461;45.630;9.418;2023-11-19T02:58:09;10.70;52.50
40756;DHT22;26461;45.630;9.418;2023-11-19T03:01:25;10.70;52.60
40756;DHT22;26461;45.630;9.418;2023-11-19T03:04:36;10.70;52.60
40756;DHT22;26461;45.630;9.418;2023-11-19T03:07:48;10.70;52.50
40756;DHT22;26461;45.630;9.418;2023-11-19T03:10:53;10.60;52.40
40756;DHT22;26461;45.630;9.418;2023-11-19T03:14:04;10.60;52.30
40756;DHT22;26461;45.630;9.418;2023-11-19T03:17:09;10.60;52.40
40756;DHT22;26461;45.630;9.418;2023-11-19T03:20:15;10.60;52.40
40756;DHT22;26461;45.630;9.418;2023-11-19T03:23:21;10.60;52.40
40756;DHT22;26461;45.630;9.418;2023-11-19T03:26:28;10.60;52.40
40756;DHT22;26461;45.630;9.418;2023-11-19T03:29:38;10.50;52.30
40756;DHT22;26461;45.630;9.418;2023-11-19T03:32:43;10.50;52.20
40756;DHT22;26461;45.630;9.418;2023-11-19T03:35:54;10.50;52.20
40756;DHT22;26461;45.630;9.418;2023-11-19T03:39:01;10.50;52.10
40756;DHT22;26461;45.630;9.418;2023-11-19T03:42:06;10.50;52.10
40756;DHT22;26461;45.630;9.418;2023-11-19T03:45:16;10.60;52.00
40756;DHT22;26461;45.630;9.418;2023-11-19T03:48:21;10.50;52.00
40756;DHT22;26461;45.630;9.418;2023-11-19T03:51:27;10.50;51.90
40756;DHT22;26461;45.630;9.418;2023-11-19T03:54:38;10.50;51.90
40756;DHT22;26461;45.630;9.418;2023-11-19T03:57:43;10.50;51.90
40756;DHT22;26461;45.630;9.418;2023-11-19T04:00:48;10.50;52.00
40756;DHT22;26461;45.630;9.418;2023-11-19T04:03:53;10.40;51.90
40756;DHT22;26461;45.630;9.418;2023-11-19T04:07:01;10.40;51.90
40756;DHT22;26461;45.630;9.418;2023-11-19T04:10:08;10.40;52.10
40756;DHT22;26461;45.630;9.418;2023-11-19T04:13:18;10.40;52.00
40756;DHT22;26461;45.630;9.418;2023-11-19T04:16:27;10.30;51.80
40756;DHT22;26461;45.630;9.418;2023-11-19T04:19:36;10.30;51.80
40756;DHT22;26461;45.630;9.418;2023-11-19T04:22:41;10.30;51.80
40756;DHT22;26461;45.630;9.418;2023-11-19T04:25:52;10.20;51.90
40756;DHT22;26461;45.630;9.418;2023-11-19T04:29:02;10.20;51.80
40756;DHT22;26461;45.630;9.418;2023-11-19T04:32:07;10.00;51.70
40756;DHT22;26461;45.630;9.418;2023-11-19T04:35:13;10.10;51.70
40756;DHT22;26461;45.630;9.418;2023-11-19T04:38:23;10.10;51.70
40756;DHT22;26461;45.630;9.418;2023-11-19T04:41:29;10.10;51.60
40756;DHT22;26461;45.630;9.418;2023-11-19T04:44:39;10.10;51.60
40756;DHT22;26461;45.630;9.418;2023-11-19T04:47:44;10.00;51.60
40756;DHT22;26461;45.630;9.418;2023-11-19T04:50:50;10.00;51.70
40756;DHT22;26461;45.630;9.418;2023-11-19T04:53:58;10.00;51.80
40756;DHT22;26461;45.630;9.418;2023-11-19T04:57:03;10.00;51.90
40756;DHT22;26461;45.630;9.418;2023-11-19T05:00:09;10.00;51.90
40756;DHT22;26461;45.630;9.418;2023-11-19T05:03:21;10.00;52.00
40756;DHT22;26461;45.630;9.418;2023-11-19T05:06:35;10.00;52.00
40756;DHT22;26461;45.630;9.418;2023-11-19T05:09:45;9.90;52.10
40756;DHT22;26461;45.630;9.418;2023-11-19T05:12:51;9.90;52.10
40756;DHT22;26461;45.630;9.418;2023-11-19T05:15:56;9.90;52.10
40756;DHT22;26461;45.630;9.418;2023-11-19T05:19:06;9.90;52.10
40756;DHT22;26461;45.630;9.418;2023-11-19T05:22:17;9.90;52.10
40756;DHT22;26461;45.630;9.418;2023-11-19T05:25:22;9.90;52.20
40756;DHT22;26461;45.630;9.418;2023-11-19T05:28:27;9.90;52.30
40756;DHT22;26461;45.630;9.418;2023-11-19T05:31:32;9.90;52.20
40756;DHT22;26461;45.630;9.418;2023-11-19T05:34:42;9.90;52.20
40756;DHT22;26461;45.630;9.418;2023-11-19T05:37:52;9.90;52.20
40756;DHT22;26461;45.630;9.418;2023-11-19T05:40:58;9.90;52.20
40756;DHT22;26461;45.630;9.418;2023-11-19T05:44:03;9.80;52.20
40756;DHT22;26461;45.630;9.418;2023-11-19T05:47:08;9.80;52.20
40756;DHT22;26461;45.630;9.418;2023-11-19T05:50:14;9.80;52.20
40756;DHT22;26461;45.630;9.418;2023-11-19T05:53:24;9.80;52.40
40756;DHT22;26461;45.630;9.418;2023-11-19T05:56:29;9.80;52.60
40756;DHT22;26461;45.630;9.418;2023-11-19T05:59:42;9.80;52.60
40756;DHT22;26461;45.630;9.418;2023-11-19T06:02:54;9.80;52.60
40756;DHT22;26461;45.630;9.418;2023-11-19T06:06:04;9.80;52.60
40756;DHT22;26461;45.630;9.418;2023-11-19T06:09:10;9.80;52.50
40756;DHT22;26461;45.630;9.418;2023-11-19T06:12:15;9.80;53.10
40756;DHT22;26461;45.630;9.418;2023-11-19T06:15:20;9.80;52.40
40756;DHT22;26461;45.630;9.418;2023-11-19T06:18:26;9.80;52.40
40756;DHT22;26461;45.630;9.418;2023-11-19T06:21:31;9.80;52.20
40756;DHT22;26461;45.630;9.418;2023-11-19T06:24:41;9.80;52.20
40756;DHT22;26461;45.630;9.418;2023-11-19T06:27:47;9.80;52.20
40756;DHT22;26461;45.630;9.418;2023-11-19T06:30:57;9.80;52.20
40756;DHT22;26461;45.630;9.418;2023-11-19T06:34:08;9.70;52.20
40756;DHT22;26461;45.630;9.418;2023-11-19T06:37:18;9.70;52.20
40756;DHT22;26461;45.630;9.418;2023-11-19T06:40:24;9.70;52.20
40756;DHT22;26461;45.630;9.418;2023-11-19T06:43:33;9.70;52.30
40756;DHT22;26461;45.630;9.418;2023-11-19T06:46:39;9.70;52.50
40756;DHT22;26461;45.630;9.418;2023-11-19T06:49:44;9.70;52.30
40756;DHT22;26461;45.630;9.418;2023-11-19T06:52:49;9.70;52.30
40756;DHT22;26461;45.630;9.418;2023-11-19T06:56:00;9.70;53.00
40756;DHT22;26461;45.630;9.418;2023-11-19T06:59:06;9.70;52.30
40756;DHT22;26461;45.630;9.418;2023-11-19T07:02:16;9.70;52.60
40756;DHT22;26461;45.630;9.418;2023-11-19T07:05:21;9.70;52.70
40756;DHT22;26461;45.630;9.418;2023-11-19T07:08:26;9.70;53.30
40756;DHT22;26461;45.630;9.418;2023-11-19T07:11:37;9.70;53.10
40756;DHT22;26461;45.630;9.418;2023-11-19T07:14:43;9.60;52.70
40756;DHT22;26461;45.630;9.418;2023-11-19T07:17:48;9.60;52.60
40756;DHT22;26461;45.630;9.418;2023-11-19T07:20:54;9.60;52.60
40756;DHT22;26461;45.630;9.418;2023-11-19T07:24:04;9.70;52.80
40756;DHT22;26461;45.630;9.418;2023-11-19T07:27:09;9.70;52.80
40756;DHT22;26461;45.630;9.418;2023-11-19T07:30:15;9.70;53.00
40756;DHT22;26461;45.630;9.418;2023-11-19T07:33:25;9.70;52.90
40756;DHT22;26461;45.630;9.418;2023-11-19T07:36:35;9.80;52.70
40756;DHT22;26461;45.630;9.418;2023-11-19T07:39:45;9.80;52.60
40756;DHT22;26461;45.630;9.418;2023-11-19T07:42:56;9.90;52.60
40756;DHT22;26461;45.630;9.418;2023-11-19T07:46:01;9.90;52.60
40756;DHT22;26461;45.630;9.418;2023-11-19T07:49:06;9.90;52.50
40756;DHT22;26461;45.630;9.418;2023-11-19T07:52:11;10.00;52.70
40756;DHT22;26461;45.630;9.418;2023-11-19T07:55:16;10.00;52.80
40756;DHT22;26461;45.630;9.418;2023-11-19T07:58:21;10.10;52.70
40756;DHT22;26461;45.630;9.418;2023-11-19T08:01:27;10.10;52.60
40756;DHT22;26461;45.630;9.418;2023-11-19T08:04:32;10.20;52.70
40756;DHT22;26461;45.630;9.418;2023-11-19T08:07:38;10.30;53.00
40756;DHT22;26461;45.630;9.418;2023-11-19T08:10:49;10.30;53.00
40756;DHT22;26461;45.630;9.418;2023-11-19T08:14:01;10.40;53.20
40756;DHT22;26461;45.630;9.418;2023-11-19T08:17:11;10.40;53.20
40756;DHT22;26461;45.630;9.418;2023-11-19T08:20:16;10.50;53.10
40756;DHT22;26461;45.630;9.418;2023-11-19T08:23:26;10.60;53.20
40756;DHT22;26461;45.630;9.418;2023-11-19T08:26:42;10.60;53.10
40756;DHT22;26461;45.630;9.418;2023-11-19T08:29:55;10.70;53.10
40756;DHT22;26461;45.630;9.418;2023-11-19T08:33:01;10.70;53.10
40756;DHT22;26461;45.630;9.418;2023-11-19T08:36:16;10.80;53.20
40756;DHT22;26461;45.630;9.418;2023-11-19T08:39:22;10.80;53.20
40756;DHT22;26461;45.630;9.418;2023-11-19T08:42:27;10.80;53.20
40756;DHT22;26461;45.630;9.418;2023-11-19T08:45:38;10.80;53.20
40756;DHT22;26461;45.630;9.418;2023-11-19T08:48:44;10.90;53.20
40756;DHT22;26461;45.630;9.418;2023-11-19T08:51:49;10.90;53.10
40756;DHT22;26461;45.630;9.418;2023-11-19T08:55:00;10.90;53.10
40756;DHT22;26461;45.630;9.418;2023-11-19T08:58:06;10.90;53.10
40756;DHT22;26461;45.630;9.418;2023-11-19T09:01:17;11.00;53.30
40756;DHT22;26461;45.630;9.418;2023-11-19T09:04:22;11.00;53.60
40756;DHT22;26461;45.630;9.418;2023-11-19T09:07:27;11.00;53.40
40756;DHT22;26461;45.630;9.418;2023-11-19T09:10:32;11.00;53.00
40756;DHT22;26461;45.630;9.418;2023-11-19T09:13:43;11.10;53.10
40756;DHT22;26461;45.630;9.418;2023-11-19T09:16:50;11.10;53.10
40756;DHT22;26461;45.630;9.418;2023-11-19T09:19:56;11.10;53.00
40756;DHT22;26461;45.630;9.418;2023-11-19T09:23:07;11.20;53.20
40756;DHT22;26461;45.630;9.418;2023-11-19T09:26:15;11.20;53.00
40756;DHT22;26461;45.630;9.418;2023-11-19T09:29:21;11.30;52.90
40756;DHT22;26461;45.630;9.418;2023-11-19T09:32:31;11.30;52.90
40756;DHT22;26461;45.630;9.418;2023-11-19T09:35:36;11.40;52.90
40756;DHT22;26461;45.630;9.418;2023-11-19T09:38:41;11.40;52.80
40756;DHT22;26461;45.630;9.418;2023-11-19T09:41:46;11.40;53.00
40756;DHT22;26461;45.630;9.418;2023-11-19T09:44:58;11.50;53.20
40756;DHT22;26461;45.630;9.418;2023-11-19T09:48:04;11.50;53.50
40756;DHT22;26461;45.630;9.418;2023-11-19T09:51:11;11.60;53.80
40756;DHT22;26461;45.630;9.418;2023-11-19T09:54:16;11.60;54.10
40756;DHT22;26461;45.630;9.418;2023-11-19T09:57:21;11.70;54.20
40756;DHT22;26461;45.630;9.418;2023-11-19T10:00:32;11.60;54.10
40756;DHT22;26461;45.630;9.418;2023-11-19T10:03:47;11.70;54.10
40756;DHT22;26461;45.630;9.418;2023-11-19T10:06:52;11.70;54.00
40756;DHT22;26461;45.630;9.418;2023-11-19T10:09:58;11.80;54.00
40756;DHT22;26461;45.630;9.418;2023-11-19T10:13:03;11.80;53.90
40756;DHT22;26461;45.630;9.418;2023-11-19T10:16:10;11.80;53.90
40756;DHT22;26461;45.630;9.418;2023-11-19T10:19:20;11.80;54.00
40756;DHT22;26461;45.630;9.418;2023-11-19T10:22:28;11.90;54.30
40756;DHT22;26461;45.630;9.418;2023-11-19T10:25:34;11.90;54.30
40756;DHT22;26461;45.630;9.418;2023-11-19T10:28:46;11.90;54.40
40756;DHT22;26461;45.630;9.418;2023-11-19T10:31:57;11.90;54.40
40756;DHT22;26461;45.630;9.418;2023-11-19T10:35:08;12.00;54.40
40756;DHT22;26461;45.630;9.418;2023-11-19T10:38:14;12.00;54.40
40756;DHT22;26461;45.630;9.418;2023-11-19T10:41:30;12.00;54.50
40756;DHT22;26461;45.630;9.418;2023-11-19T10:44:41;12.00;54.50
40756;DHT22;26461;45.630;9.418;2023-11-19T10:47:47;12.00;54.80
40756;DHT22;26461;45.630;9.418;2023-11-19T10:50:54;12.10;55.10
40756;DHT22;26461;45.630;9.418;2023-11-19T10:54:04;12.10;55.10
40756;DHT22;26461;45.630;9.418;2023-11-19T10:57:20;12.10;55.40
40756;DHT22;26461;45.630;9.418;2023-11-19T11:00:44;12.10;55.20
40756;DHT22;26461;45.630;9.418;2023-11-19T11:03:51;12.10;55.30
40756;DHT22;26461;45.630;9.418;2023-11-19T11:06:58;12.10;55.10
40756;DHT22;26461;45.630;9.418;2023-11-19T11:10:06;12.20;55.10
40756;DHT22;26461;45.630;9.418;2023-11-19T11:13:18;12.20;55.00
40756;DHT22;26461;45.630;9.418;2023-11-19T11:16:24;12.20;55.10
40756;DHT22;26461;45.630;9.418;2023-11-19T11:19:30;12.20;55.30
40756;DHT22;26461;45.630;9.418;2023-11-19T11:22:57;12.30;55.30
40756;DHT22;26461;45.630;9.418;2023-11-19T11:36:18;12.50;54.60
40756;DHT22;26461;45.630;9.418;2023-11-19T11:39:30;12.50;54.60
40756;DHT22;26461;45.630;9.418;2023-11-19T11:42:40;12.50;54.60
40756;DHT22;26461;45.630;9.418;2023-11-19T11:45:46;12.60;54.60
40756;DHT22;26461;45.630;9.418;2023-11-19T11:48:59;12.60;54.60
40756;DHT22;26461;45.630;9.418;2023-11-19T11:52:10;12.70;54.50
40756;DHT22;26461;45.630;9.418;2023-11-19T11:55:19;12.70;54.50
40756;DHT22;26461;45.630;9.418;2023-11-19T11:58:35;12.80;54.70
40756;DHT22;26461;45.630;9.418;2023-11-19T12:02:00;12.90;54.70
40756;DHT22;26461;45.630;9.418;2023-11-19T12:05:06;13.00;55.00
40756;DHT22;26461;45.630;9.418;2023-11-19T12:08:20;13.00;54.90
40756;DHT22;26461;45.630;9.418;2023-11-19T12:11:34;13.10;54.60
40756;DHT22;26461;45.630;9.418;2023-11-19T12:18:19;13.30;54.30
40756;DHT22;26461;45.630;9.418;2023-11-19T12:21:31;13.30;54.20
40756;DHT22;26461;45.630;9.418;2023-11-19T12:24:41;13.50;54.60
40756;DHT22;26461;45.630;9.418;2023-11-19T12:27:51;13.50;54.20
40756;DHT22;26461;45.630;9.418;2023-11-19T12:31:08;13.60;54.00
40756;DHT22;26461;45.630;9.418;2023-11-19T12:34:17;13.70;54.10
40756;DHT22;26461;45.630;9.418;2023-11-19T12:37:22;13.80;53.90
40756;DHT22;26461;45.630;9.418;2023-11-19T12:40:32;13.90;53.90
40756;DHT22;26461;45.630;9.418;2023-11-19T12:43:39;14.00;53.80
40756;DHT22;26461;45.630;9.418;2023-11-19T12:46:45;14.10;53.30
40756;DHT22;26461;45.630;9.418;2023-11-19T12:49:58;14.10;53.20
40756;DHT22;26461;45.630;9.418;2023-11-19T12:53:03;14.20;53.20
40756;DHT22;26461;45.630;9.418;2023-11-19T12:56:10;14.20;53.10
40756;DHT22;26461;45.630;9.418;2023-11-19T12:59:21;14.30;52.80
40756;DHT22;26461;45.630;9.418;2023-11-19T13:06:10;14.50;52.60
40756;DHT22;26461;45.630;9.418;2023-11-19T13:12:32;14.60;51.90
40756;DHT22;26461;45.630;9.418;2023-11-19T13:15:37;14.60;51.70
40756;DHT22;26461;45.630;9.418;2023-11-19T13:18:48;14.70;51.00
40756;DHT22;26461;45.630;9.418;2023-11-19T13:21:54;14.80;50.70
40756;DHT22;26461;45.630;9.418;2023-11-19T13:25:04;14.80;50.60
40756;DHT22;26461;45.630;9.418;2023-11-19T13:28:10;14.90;50.50
40756;DHT22;26461;45.630;9.418;2023-11-19T13:31:21;14.90;49.60
40756;DHT22;26461;45.630;9.418;2023-11-19T13:34:27;15.00;49.50
40756;DHT22;26461;45.630;9.418;2023-11-19T13:37:32;15.10;48.90
40756;DHT22;26461;45.630;9.418;2023-11-19T13:40:38;15.20;48.30
40756;DHT22;26461;45.630;9.418;2023-11-19T13:43:49;15.20;47.30
40756;DHT22;26461;45.630;9.418;2023-11-19T13:47:00;15.30;46.80
40756;DHT22;26461;45.630;9.418;2023-11-19T13:50:05;15.30;46.80
40756;DHT22;26461;45.630;9.418;2023-11-19T13:53:11;15.30;47.30
40756;DHT22;26461;45.630;9.418;2023-11-19T13:56:17;15.40;47.90
40756;DHT22;26461;45.630;9.418;2023-11-19T13:59:22;15.50;48.20
40756;DHT22;26461;45.630;9.418;2023-11-19T14:02:30;15.50;48.00
40756;DHT22;26461;45.630;9.418;2023-11-19T14:05:41;15.60;48.30
40756;DHT22;26461;45.630;9.418;2023-11-19T14:08:52;15.50;48.70
40756;DHT22;26461;45.630;9.418;2023-11-19T14:11:57;15.60;49.00
40756;DHT22;26461;45.630;9.418;2023-11-19T14:15:07;15.70;49.20
40756;DHT22;26461;45.630;9.418;2023-11-19T14:18:14;15.80;49.20
40756;DHT22;26461;45.630;9.418;2023-11-19T14:21:24;15.80;49.20
40756;DHT22;26461;45.630;9.418;2023-11-19T14:24:36;15.80;49.60
40756;DHT22;26461;45.630;9.418;2023-11-19T14:27:46;15.90;50.00
40756;DHT22;26461;45.630;9.418;2023-11-19T14:30:51;15.90;50.60
40756;DHT22;26461;45.630;9.418;2023-11-19T14:34:06;16.00;51.00
40756;DHT22;26461;45.630;9.418;2023-11-19T14:37:12;16.10;51.10
40756;DHT22;26461;45.630;9.418;2023-11-19T14:40:22;16.10;51.10
40756;DHT22;26461;45.630;9.418;2023-11-19T14:43:27;16.20;51.30
40756;DHT22;26461;45.630;9.418;2023-11-19T14:46:38;16.20;51.20
40756;DHT22;26461;45.630;9.418;2023-11-19T14:49:48;16.30;51.30
40756;DHT22;26461;45.630;9.418;2023-11-19T14:52:54;16.30;51.40
40756;DHT22;26461;45.630;9.418;2023-11-19T14:55:59;16.40;51.40
40756;DHT22;26461;45.630;9.418;2023-11-19T14:59:09;16.40;51.30
40756;DHT22;26461;45.630;9.418;2023-11-19T15:02:14;16.40;51.10
40756;DHT22;26461;45.630;9.418;2023-11-19T15:05:20;16.40;51.10
40756;DHT22;26461;45.630;9.418;2023-11-19T15:08:26;16.40;51.30
40756;DHT22;26461;45.630;9.418;2023-11-19T15:11:34;16.40;51.40
40756;DHT22;26461;45.630;9.418;2023-11-19T15:14:40;16.40;51.40
40756;DHT22;26461;45.630;9.418;2023-11-19T15:17:50;16.50;51.30
40756;DHT22;26461;45.630;9.418;2023-11-19T15:20:55;16.50;51.30
40756;DHT22;26461;45.630;9.418;2023-11-19T15:24:06;16.40;51.20
40756;DHT22;26461;45.630;9.418;2023-11-19T15:27:12;16.40;51.70
40756;DHT22;26461;45.630;9.418;2023-11-19T15:30:23;16.30;51.20
40756;DHT22;26461;45.630;9.418;2023-11-19T15:33:28;16.20;51.40
40756;DHT22;26461;45.630;9.418;2023-11-19T15:36:34;16.20;51.60
40756;DHT22;26461;45.630;9.418;2023-11-19T15:39:45;16.20;51.70
40756;DHT22;26461;45.630;9.418;2023-11-19T15:42:52;16.10;51.70
40756;DHT22;26461;45.630;9.418;2023-11-19T15:46:10;16.10;52.00
40756;DHT22;26461;45.630;9.418;2023-11-19T15:49:16;16.00;52.10
40756;DHT22;26461;45.630;9.418;2023-11-19T15:52:21;15.90;52.30
40756;DHT22;26461;45.630;9.418;2023-11-19T15:55:31;15.80;52.30
40756;DHT22;26461;45.630;9.418;2023-11-19T15:58:37;15.80;52.40
40756;DHT22;26461;45.630;9.418;2023-11-19T16:01:44;15.70;52.40
40756;DHT22;26461;45.630;9.418;2023-11-19T16:04:49;15.60;52.60
40756;DHT22;26461;45.630;9.418;2023-11-19T16:07:55;15.60;52.70
40756;DHT22;26461;45.630;9.418;2023-11-19T16:11:05;15.50;52.80
40756;DHT22;26461;45.630;9.418;2023-11-19T16:14:18;15.40;52.90
40756;DHT22;26461;45.630;9.418;2023-11-19T16:17:23;15.30;53.10
40756;DHT22;26461;45.630;9.418;2023-11-19T16:20:28;15.30;53.40
40756;DHT22;26461;45.630;9.418;2023-11-19T16:23:33;15.20;53.70
40756;DHT22;26461;45.630;9.418;2023-11-19T16:26:45;15.10;53.90
40756;DHT22;26461;45.630;9.418;2023-11-19T16:29:55;15.00;54.00
40756;DHT22;26461;45.630;9.418;2023-11-19T16:33:08;14.90;54.20
40756;DHT22;26461;45.630;9.418;2023-11-19T16:36:14;14.90;54.50
40756;DHT22;26461;45.630;9.418;2023-11-19T16:39:20;14.80;54.70
40756;DHT22;26461;45.630;9.418;2023-11-19T16:42:30;14.70;55.00
40756;DHT22;26461;45.630;9.418;2023-11-19T16:45:36;14.60;55.10
40756;DHT22;26461;45.630;9.418;2023-11-19T16:48:45;14.60;55.50
40756;DHT22;26461;45.630;9.418;2023-11-19T16:51:51;14.50;55.70
40756;DHT22;26461;45.630;9.418;2023-11-19T16:55:02;14.50;55.90
40756;DHT22;26461;45.630;9.418;2023-11-19T16:58:09;14.40;55.90
40756;DHT22;26461;45.630;9.418;2023-11-19T17:01:20;14.30;56.60
40756;DHT22;26461;45.630;9.418;2023-11-19T17:04:25;14.30;56.90
40756;DHT22;26461;45.630;9.418;2023-11-19T17:07:37;14.20;56.30
40756;DHT22;26461;45.630;9.418;2023-11-19T17:10:44;14.20;56.50
40756;DHT22;26461;45.630;9.418;2023-11-19T17:13:49;14.10;56.60
40756;DHT22;26461;45.630;9.418;2023-11-19T17:17:00;14.00;56.70
40756;DHT22;26461;45.630;9.418;2023-11-19T17:20:07;14.00;56.80
40756;DHT22;26461;45.630;9.418;2023-11-19T17:23:19;14.00;57.00
40756;DHT22;26461;45.630;9.418;2023-11-19T17:26:24;13.90;57.20
40756;DHT22;26461;45.630;9.418;2023-11-19T17:29:34;13.90;57.50
40756;DHT22;26461;45.630;9.418;2023-11-19T17:32:45;13.80;57.50
40756;DHT22;26461;45.630;9.418;2023-11-19T17:35:50;13.80;57.70
40756;DHT22;26461;45.630;9.418;2023-11-19T17:38:56;13.70;57.90
40756;DHT22;26461;45.630;9.418;2023-11-19T17:42:01;13.70;58.00
40756;DHT22;26461;45.630;9.418;2023-11-19T17:45:07;13.60;58.10
40756;DHT22;26461;45.630;9.418;2023-11-19T17:48:13;13.50;58.20
40756;DHT22;26461;45.630;9.418;2023-11-19T17:51:24;13.50;58.30
40756;DHT22;26461;45.630;9.418;2023-11-19T17:54:29;13.50;58.50
40756;DHT22;26461;45.630;9.418;2023-11-19T17:57:35;13.50;58.40
40756;DHT22;26461;45.630;9.418;2023-11-19T18:00:40;13.40;58.50
40756;DHT22;26461;45.630;9.418;2023-11-19T18:03:51;13.40;58.50
40756;DHT22;26461;45.630;9.418;2023-11-19T18:07:01;13.40;58.20
40756;DHT22;26461;45.630;9.418;2023-11-19T18:10:07;13.40;58.20
40756;DHT22;26461;45.630;9.418;2023-11-19T18:13:17;13.40;58.40
40756;DHT22;26461;45.630;9.418;2023-11-19T18:16:22;13.40;58.40
40756;DHT22;26461;45.630;9.418;2023-11-19T18:19:28;13.40;58.60
40756;DHT22;26461;45.630;9.418;2023-11-19T18:22:43;13.30;58.70
40756;DHT22;26461;45.630;9.418;2023-11-19T18:25:50;13.20;58.70
40756;DHT22;26461;45.630;9.418;2023-11-19T18:28:57;13.20;58.50
40756;DHT22;26461;45.630;9.418;2023-11-19T18:32:02;13.20;58.70
40756;DHT22;26461;45.630;9.418;2023-11-19T18:35:08;13.20;58.90
40756;DHT22;26461;45.630;9.418;2023-11-19T18:38:22;13.20;59.10
40756;DHT22;26461;45.630;9.418;2023-11-19T18:41:32;13.10;59.10
40756;DHT22;26461;45.630;9.418;2023-11-19T18:44:43;13.10;59.10
40756;DHT22;26461;45.630;9.418;2023-11-19T18:47:54;13.10;59.10
40756;DHT22;26461;45.630;9.418;2023-11-19T18:51:04;13.10;58.60
40756;DHT22;26461;45.630;9.418;2023-11-19T18:54:15;13.00;58.60
40756;DHT22;26461;45.630;9.418;2023-11-19T18:57:24;13.00;58.40
40756;DHT22;26461;45.630;9.418;2023-11-19T19:00:34;13.00;57.60
40756;DHT22;26461;45.630;9.418;2023-11-19T19:03:39;13.00;57.50
40756;DHT22;26461;45.630;9.418;2023-11-19T19:06:46;12.90;57.70
40756;DHT22;26461;45.630;9.418;2023-11-19T19:09:59;12.90;57.60
40756;DHT22;26461;45.630;9.418;2023-11-19T19:13:12;12.80;57.70
40756;DHT22;26461;45.630;9.418;2023-11-19T19:16:18;12.80;57.90
40756;DHT22;26461;45.630;9.418;2023-11-19T19:19:28;12.80;58.00
40756;DHT22;26461;45.630;9.418;2023-11-19T19:22:39;12.70;57.90
40756;DHT22;26461;45.630;9.418;2023-11-19T19:25:45;12.70;58.00
40756;DHT22;26461;45.630;9.418;2023-11-19T19:28:55;12.60;58.10
40756;DHT22;26461;45.630;9.418;2023-11-19T19:32:06;12.60;58.10
40756;DHT22;26461;45.630;9.418;2023-11-19T19:35:16;12.60;58.30
40756;DHT22;26461;45.630;9.418;2023-11-19T19:38:22;12.60;58.50
40756;DHT22;26461;45.630;9.418;2023-11-19T19:41:32;12.50;58.50
40756;DHT22;26461;45.630;9.418;2023-11-19T19:44:38;12.50;58.50
40756;DHT22;26461;45.630;9.418;2023-11-19T19:47:48;12.50;58.70
40756;DHT22;26461;45.630;9.418;2023-11-19T19:50:53;12.50;58.70
40756;DHT22;26461;45.630;9.418;2023-11-19T19:53:59;12.40;58.70
40756;DHT22;26461;45.630;9.418;2023-11-19T19:57:10;12.40;58.80
40756;DHT22;26461;45.630;9.418;2023-11-19T20:00:15;12.40;59.00
40756;DHT22;26461;45.630;9.418;2023-11-19T20:03:27;12.30;59.10
40756;DHT22;26461;45.630;9.418;2023-11-19T20:06:38;12.30;59.70
40756;DHT22;26461;45.630;9.418;2023-11-19T20:09:49;12.30;59.40
40756;DHT22;26461;45.630;9.418;2023-11-19T20:12:55;12.20;59.40
40756;DHT22;26461;45.630;9.418;2023-11-19T20:16:01;12.20;59.40